This is the latest recevied weather packets stored in our database for station/object IZ8NVY-11. If no packets are shown the sender has not sent any weather packets the latest 10 day(s).
| Time | Temp. | Humidity | Pressure | Rain* | Wind** | Luminosity | Snow |
|---|---|---|---|---|---|---|---|
| 1777937665 | 15.56° C | 33% | 885 hPa | - | - | - | - |
| 1777934064 | 15.56° C | 36% | 885.5 hPa | - | - | - | - |
| 1777930463 | 15.56° C | 38% | 885.7 hPa | - | - | - | - |
| 1777926862 | 16.11° C | 37% | 885.6 hPa | - | - | - | - |
| 1777923262 | 15° C | 48% | 885.7 hPa | - | - | - | - |
| 1777919661 | 15.56° C | 45% | 885.5 hPa | - | - | - | - |
| 1777916060 | 16.67° C | 44% | 885.5 hPa | - | - | - | - |
| 1777912459 | 18.89° C | 41% | 885.5 hPa | - | - | - | - |
| 1777908860 | 23.89° C | 37% | 885.7 hPa | - | - | - | - |
| 1777905258 | 22.78° C | 40% | 885.8 hPa | - | - | - | - |
| 1777901657 | 25.56° C | 39% | 886.1 hPa | - | - | - | - |
| 1777898056 | 22.78° C | 41% | 886.7 hPa | - | - | - | - |
| 1777894455 | 23.33° C | 41% | 886.5 hPa | - | - | - | - |
| 1777890855 | 24.44° C | 41% | 886.7 hPa | - | - | - | - |
| 1777887254 | 22.78° C | 39% | 887 hPa | - | - | - | - |
| 1777883653 | 19.44° C | 40% | 887 hPa | - | - | - | - |
| 1777880055 | 23.89° C | 40% | 886.5 hPa | - | - | - | - |
| 1777876454 | 20.56° C | 40% | 886.4 hPa | - | - | - | - |
| 1777872851 | 15° C | 47% | 886.3 hPa | - | - | - | - |
| 1777869253 | 13.33° C | 47% | 885.9 hPa | - | - | - | - |
| 1777865652 | 13.89° C | 46% | 885.7 hPa | - | - | - | - |
| 1777862051 | 13.89° C | 41% | 885.9 hPa | - | - | - | - |
| 1777858448 | 13.33° C | 42% | 886.1 hPa | - | - | - | - |
| 1777854847 | 13.89° C | 38% | 886.1 hPa | - | - | - | - |
| 1777851246 | 15° C | 37% | 886.2 hPa | - | - | - | - |
* Rain since midnight (hover to see other rain measurements)
** Current wind speed in m/s (hover to see current wind gust speed)